createdAt,value
2023-01-13T00:00:50.855Z,97.68
2023-01-13T00:03:17.509Z,98.22
2023-01-13T00:05:44.067Z,100.00
2023-01-13T00:08:10.795Z,100.00
2023-01-13T00:10:37.368Z,100.00
2023-01-13T00:13:05.345Z,100.00
2023-01-13T00:15:33.687Z,100.00
2023-01-13T00:18:00.337Z,100.00
2023-01-13T00:20:26.997Z,100.00
2023-01-13T00:22:53.646Z,98.86
2023-01-13T00:25:20.197Z,99.62
2023-01-13T00:27:46.813Z,98.59
2023-01-13T00:30:13.755Z,95.97
2023-01-13T00:32:40.377Z,96.52
2023-01-13T00:35:07.549Z,97.39
2023-01-13T00:37:37.013Z,98.33
2023-01-13T00:40:04.556Z,99.19
2023-01-13T00:42:49.599Z,98.60
2023-01-13T00:45:16.129Z,96.23
2023-01-13T00:47:42.774Z,95.56
2023-01-13T00:50:10.256Z,98.07
2023-01-13T00:52:36.802Z,99.17
2023-01-13T00:55:03.676Z,99.48
2023-01-13T00:57:30.225Z,100.00
2023-01-13T00:59:56.841Z,100.00
2023-01-13T01:02:23.463Z,99.92
2023-01-13T01:04:50.130Z,100.00
2023-01-13T01:07:16.904Z,99.96
2023-01-13T01:09:43.517Z,100.00
2023-01-13T01:12:10.109Z,100.00
2023-01-13T01:14:36.718Z,100.00
2023-01-13T01:17:03.324Z,100.00
2023-01-13T01:19:29.886Z,100.00
2023-01-13T01:21:56.472Z,100.00
2023-01-13T01:24:23.135Z,100.00
2023-01-13T01:26:49.737Z,100.00
2023-01-13T01:29:16.424Z,100.00
2023-01-13T01:31:43.437Z,100.00
2023-01-13T01:34:10.444Z,100.00
2023-01-13T01:36:37.006Z,100.00
2023-01-13T01:39:04.247Z,100.00
2023-01-13T01:41:32.933Z,100.00
2023-01-13T01:44:43.594Z,100.00
2023-01-13T01:47:14.642Z,100.00
2023-01-13T01:49:42.741Z,100.00
2023-01-13T01:52:14.694Z,100.00
2023-01-13T01:54:44.220Z,100.00
2023-01-13T01:57:15.917Z,100.00
2023-01-13T01:59:43.293Z,100.00
2023-01-13T02:02:10.610Z,100.00
2023-01-13T02:04:40.672Z,100.00
2023-01-13T02:07:08.152Z,100.00
2023-01-13T02:09:36.104Z,100.00
2023-01-13T02:12:20.931Z,100.00
2023-01-13T02:14:47.815Z,100.00
2023-01-13T02:17:41.713Z,100.00
2023-01-13T02:20:39.724Z,100.00
2023-01-13T02:23:43.133Z,100.00
2023-01-13T02:26:15.641Z,100.00
2023-01-13T02:29:22.037Z,100.00
2023-01-13T02:31:51.141Z,100.00
2023-01-13T02:34:28.011Z,100.00
2023-01-13T02:37:04.910Z,100.00
2023-01-13T02:39:41.666Z,100.00
2023-01-13T02:42:42.406Z,100.00
2023-01-13T02:45:42.043Z,100.00
2023-01-13T02:48:10.052Z,100.00
2023-01-13T02:50:46.818Z,100.00
2023-01-13T02:53:23.337Z,100.00
2023-01-13T02:55:53.501Z,100.00
2023-01-13T02:58:24.877Z,100.00
2023-01-13T03:00:51.706Z,100.00
2023-01-13T03:03:18.462Z,100.00
2023-01-13T03:05:48.327Z,100.00
2023-01-13T03:08:29.634Z,100.00
2023-01-13T03:11:08.772Z,100.00
2023-01-13T03:13:54.040Z,100.00
2023-01-13T03:16:47.287Z,100.00
2023-01-13T03:19:16.511Z,100.00
2023-01-13T03:22:07.816Z,100.00
2023-01-13T03:24:43.099Z,100.00
2023-01-13T03:27:27.958Z,100.00
2023-01-13T03:30:04.382Z,100.00
2023-01-13T03:32:38.774Z,100.00
2023-01-13T03:35:14.385Z,100.00
2023-01-13T03:37:43.797Z,100.00
2023-01-13T03:40:15.576Z,100.00
2023-01-13T03:43:05.932Z,100.00
2023-01-13T03:45:35.814Z,100.00
2023-01-13T03:48:10.890Z,100.00
2023-01-13T03:50:51.549Z,100.00
2023-01-13T03:53:24.172Z,100.00
2023-01-13T03:55:57.599Z,100.00
2023-01-13T03:58:29.156Z,100.00
2023-01-13T04:01:01.261Z,100.00
2023-01-13T04:03:55.943Z,100.00
2023-01-13T04:06:45.430Z,100.00
2023-01-13T04:09:23.809Z,100.00
2023-01-13T04:11:59.121Z,100.00
2023-01-13T04:14:28.087Z,100.00
2023-01-13T04:16:55.223Z,100.00
2023-01-13T04:19:22.278Z,100.00
2023-01-13T04:21:48.784Z,100.00
2023-01-13T04:24:15.206Z,100.00
2023-01-13T04:26:41.663Z,100.00
2023-01-13T04:29:08.088Z,100.00
2023-01-13T04:31:34.560Z,100.00
2023-01-13T04:34:01.014Z,100.00
2023-01-13T04:36:27.726Z,100.00
2023-01-13T04:38:57.208Z,100.00
2023-01-13T04:41:23.672Z,100.00
2023-01-13T04:43:50.136Z,100.00
2023-01-13T04:46:16.655Z,100.00
2023-01-13T04:48:43.136Z,100.00
2023-01-13T04:51:09.612Z,100.00
2023-01-13T04:53:36.048Z,100.00
2023-01-13T04:56:02.511Z,100.00
2023-01-13T04:58:28.982Z,100.00
2023-01-13T05:00:55.560Z,100.00
2023-01-13T05:03:24.240Z,100.00
2023-01-13T05:05:52.070Z,100.00
2023-01-13T05:08:18.499Z,100.00
2023-01-13T05:10:44.930Z,100.00
2023-01-13T05:13:29.973Z,100.00
2023-01-13T05:16:28.677Z,100.00
2023-01-13T05:18:55.112Z,100.00
2023-01-13T05:21:39.951Z,100.00
2023-01-13T05:24:26.238Z,100.00
2023-01-13T05:26:52.700Z,100.00
2023-01-13T05:29:19.166Z,100.00
2023-01-13T05:31:45.604Z,100.00
2023-01-13T05:34:12.012Z,100.00
2023-01-13T05:36:38.443Z,100.00
2023-01-13T05:39:05.352Z,100.00
2023-01-13T05:41:50.196Z,100.00
2023-01-13T05:44:16.615Z,100.00
2023-01-13T05:46:43.089Z,100.00
2023-01-13T05:49:09.531Z,100.00
2023-01-13T05:51:36.028Z,100.00
2023-01-13T05:54:02.560Z,100.00
2023-01-13T05:56:29.001Z,100.00
2023-01-13T05:58:55.415Z,100.00
2023-01-13T06:01:21.890Z,100.00
2023-01-13T06:03:48.341Z,100.00
2023-01-13T06:06:14.797Z,100.00
2023-01-13T06:08:41.228Z,100.00
2023-01-13T06:11:07.926Z,100.00
2023-01-13T06:13:34.400Z,100.00
2023-01-13T06:16:01.275Z,100.00
2023-01-13T06:18:27.919Z,100.00
2023-01-13T06:20:54.611Z,100.00
2023-01-13T06:23:21.108Z,100.00
2023-01-13T06:26:04.166Z,100.00
2023-01-13T06:28:30.630Z,100.00
2023-01-13T06:31:00.960Z,100.00
2023-01-13T06:33:32.709Z,100.00
2023-01-13T06:36:03.355Z,100.00
2023-01-13T06:38:37.323Z,100.00
2023-01-13T06:41:06.992Z,100.00
2023-01-13T06:43:33.624Z,100.00
2023-01-13T06:46:01.721Z,100.00
2023-01-13T06:48:35.285Z,100.00
2023-01-13T06:51:03.706Z,100.00
2023-01-13T06:53:30.752Z,100.00
2023-01-13T06:55:57.172Z,100.00
2023-01-13T06:58:23.607Z,100.00
2023-01-13T07:00:51.430Z,100.00
2023-01-13T07:03:19.006Z,100.00
2023-01-13T07:05:52.885Z,100.00
2023-01-13T07:08:19.607Z,100.00
2023-01-13T07:10:46.355Z,100.00
2023-01-13T07:13:31.494Z,100.00
2023-01-13T07:16:03.034Z,100.00
2023-01-13T07:18:34.418Z,100.00
2023-01-13T07:21:03.869Z,100.00
2023-01-13T07:23:32.610Z,100.00
2023-01-13T07:26:00.125Z,100.00
2023-01-13T07:28:28.565Z,100.00
2023-01-13T07:30:55.171Z,100.00
2023-01-13T07:33:21.992Z,100.00
2023-01-13T07:35:56.814Z,100.00
2023-01-13T07:38:23.361Z,100.00
2023-01-13T07:40:49.777Z,100.00
2023-01-13T07:43:34.205Z,100.00
2023-01-13T07:46:05.903Z,100.00
2023-01-13T07:48:34.691Z,100.00
2023-01-13T07:51:06.199Z,100.00
2023-01-13T07:53:32.974Z,100.00
2023-01-13T07:56:00.176Z,100.00
2023-01-13T07:58:27.680Z,100.00
2023-01-13T08:00:54.703Z,100.00
2023-01-13T08:03:22.329Z,100.00
2023-01-13T08:05:48.901Z,100.00
2023-01-13T08:08:16.130Z,100.00
2023-01-13T08:10:42.583Z,100.00
2023-01-13T08:13:17.543Z,100.00
2023-01-13T08:15:44.911Z,100.00
2023-01-13T08:18:11.935Z,99.85
2023-01-13T08:20:38.637Z,100.00
2023-01-13T08:23:07.219Z,99.49
2023-01-13T08:25:34.004Z,97.69
2023-01-13T08:28:00.529Z,95.80
2023-01-13T08:30:27.823Z,93.81
2023-01-13T08:32:54.693Z,93.31
2023-01-13T08:35:21.361Z,90.58
2023-01-13T08:37:48.879Z,89.62
2023-01-13T08:40:16.511Z,87.47
2023-01-13T08:42:43.131Z,87.39
2023-01-13T08:45:10.976Z,85.13
2023-01-13T08:47:37.461Z,85.99
2023-01-13T08:50:05.293Z,85.98
2023-01-13T08:52:31.743Z,83.15
2023-01-13T08:54:58.279Z,83.29
2023-01-13T08:57:24.814Z,83.77
2023-01-13T08:59:51.382Z,81.42
2023-01-13T09:02:21.120Z,80.58
2023-01-13T09:04:48.824Z,83.66
2023-01-13T09:07:16.459Z,84.70
2023-01-13T09:09:43.216Z,84.02
2023-01-13T09:12:33.175Z,80.97
2023-01-13T09:15:00.123Z,82.17
2023-01-13T09:17:27.339Z,81.66
2023-01-13T09:19:53.829Z,84.77
2023-01-13T09:22:20.853Z,82.50
2023-01-13T09:24:47.437Z,82.29
2023-01-13T09:27:15.337Z,82.53
2023-01-13T09:29:42.922Z,82.42
2023-01-13T09:32:13.807Z,82.73
2023-01-13T09:34:58.925Z,84.37
2023-01-13T09:37:26.755Z,86.87
2023-01-13T09:39:53.334Z,89.18
2023-01-13T09:43:00.143Z,90.71
2023-01-13T09:45:33.832Z,98.74
2023-01-13T09:48:09.411Z,99.78
2023-01-13T09:50:45.745Z,100.00
2023-01-13T09:53:19.665Z,100.00
2023-01-13T09:55:46.280Z,100.00
2023-01-13T09:58:16.834Z,100.00
2023-01-13T10:00:52.310Z,100.00
2023-01-13T10:03:24.088Z,100.00
2023-01-13T10:05:59.860Z,100.00
2023-01-13T10:08:36.195Z,100.00
2023-01-13T10:11:28.765Z,100.00
2023-01-13T10:14:15.799Z,100.00
2023-01-13T10:17:02.952Z,98.83
2023-01-13T10:19:36.265Z,100.00
2023-01-13T10:22:24.657Z,100.00
2023-01-13T10:25:03.743Z,100.00
2023-01-13T10:27:30.304Z,100.00
2023-01-13T10:29:57.202Z,100.00
2023-01-13T10:32:23.775Z,100.00
2023-01-13T10:34:51.956Z,100.00
2023-01-13T10:37:27.022Z,97.90
2023-01-13T10:40:01.281Z,96.15
2023-01-13T10:42:27.762Z,98.12
2023-01-13T10:45:00.211Z,97.57
2023-01-13T10:47:37.190Z,96.59
2023-01-13T10:50:08.672Z,96.28
2023-01-13T10:52:39.950Z,96.10
2023-01-13T10:55:33.165Z,96.01
2023-01-13T10:58:32.024Z,95.43
2023-01-13T11:01:02.082Z,94.82
2023-01-13T11:03:41.796Z,94.39
2023-01-13T11:06:09.695Z,93.14
2023-01-13T11:08:45.470Z,90.83
2023-01-13T11:11:37.714Z,90.65
2023-01-13T11:14:25.527Z,91.35
2023-01-13T11:16:57.080Z,91.26
2023-01-13T11:19:27.567Z,91.67
2023-01-13T11:22:12.684Z,92.75
2023-01-13T11:24:46.323Z,91.21
2023-01-13T11:27:34.063Z,90.61
2023-01-13T11:30:22.212Z,91.11
2023-01-13T11:33:10.720Z,91.18
2023-01-13T11:36:02.029Z,89.43
2023-01-13T11:38:31.195Z,89.06
2023-01-13T11:41:07.962Z,90.08
2023-01-13T11:43:53.852Z,90.49
2023-01-13T11:46:26.417Z,91.87
2023-01-13T11:48:56.350Z,89.19
2023-01-13T11:51:49.023Z,89.27
2023-01-13T11:54:24.371Z,88.19
2023-01-13T11:57:04.071Z,87.30
2023-01-13T11:59:54.562Z,86.71
2023-01-13T12:02:42.359Z,87.47
2023-01-13T12:05:14.828Z,89.66
2023-01-13T12:07:49.118Z,87.50
2023-01-13T12:10:26.085Z,90.83
2023-01-13T12:13:04.728Z,90.60
2023-01-13T12:15:48.613Z,91.33
2023-01-13T12:18:38.130Z,91.27
2023-01-13T12:21:17.994Z,93.90
2023-01-13T12:23:59.818Z,95.87
2023-01-13T12:26:29.097Z,97.77
2023-01-13T12:28:58.244Z,97.14
2023-01-13T12:31:25.583Z,96.13
2023-01-13T12:33:59.056Z,97.07
2023-01-13T12:36:31.813Z,98.76
2023-01-13T12:39:11.298Z,96.99
2023-01-13T12:42:05.844Z,96.49
2023-01-13T12:44:32.347Z,97.96
2023-01-13T12:47:00.002Z,97.43
2023-01-13T12:49:32.360Z,98.56
2023-01-13T12:52:13.960Z,94.28
2023-01-13T12:54:40.370Z,94.27
2023-01-13T12:57:24.780Z,94.66
2023-01-13T13:00:03.438Z,93.26
2023-01-13T13:02:40.711Z,93.34
2023-01-13T13:05:25.447Z,94.24
2023-01-13T13:08:04.905Z,93.44
2023-01-13T13:10:38.687Z,94.43
2023-01-13T13:13:21.779Z,93.49
2023-01-13T13:15:50.819Z,93.79
2023-01-13T13:18:17.221Z,92.47
2023-01-13T13:21:09.016Z,92.66
2023-01-13T13:23:56.891Z,91.01
2023-01-13T13:26:46.754Z,92.24
2023-01-13T13:29:39.725Z,91.25
2023-01-13T13:32:18.265Z,92.44
2023-01-13T13:35:07.847Z,91.48
2023-01-13T13:38:05.228Z,93.15
2023-01-13T13:40:58.229Z,93.14
2023-01-13T13:43:44.208Z,93.80
2023-01-13T13:46:47.365Z,94.64
2023-01-13T13:49:18.496Z,93.25
2023-01-13T13:52:19.864Z,92.83
2023-01-13T13:54:50.573Z,91.93
2023-01-13T13:57:20.007Z,92.94
2023-01-13T13:59:54.749Z,90.67
2023-01-13T14:02:28.691Z,90.13
2023-01-13T14:05:17.142Z,90.77
2023-01-13T14:07:49.971Z,89.99
2023-01-13T14:10:25.765Z,90.36
2023-01-13T14:12:52.934Z,90.58
2023-01-13T14:15:38.996Z,90.33
2023-01-13T14:18:12.583Z,89.26
2023-01-13T14:20:39.856Z,88.28
2023-01-13T14:23:06.674Z,87.01
2023-01-13T14:25:34.922Z,85.59
2023-01-13T14:28:23.465Z,85.91
2023-01-13T14:30:51.616Z,84.69
2023-01-13T14:33:23.080Z,86.10
2023-01-13T14:36:20.786Z,86.66
2023-01-13T14:38:50.540Z,85.48
2023-01-13T14:41:27.543Z,87.47
2023-01-13T14:43:57.834Z,87.77
2023-01-13T14:46:25.604Z,88.61
2023-01-13T14:48:59.766Z,90.33
2023-01-13T14:51:28.716Z,87.79
2023-01-13T14:53:57.044Z,90.66
2023-01-13T14:56:43.432Z,100.00
2023-01-13T14:59:51.770Z,100.00
2023-01-13T15:02:30.689Z,100.00
2023-01-13T15:05:18.844Z,100.00
2023-01-13T15:07:50.193Z,100.00
2023-01-13T15:10:18.895Z,100.00
2023-01-13T15:12:46.425Z,100.00
2023-01-13T15:15:32.921Z,100.00
2023-01-13T15:18:12.483Z,100.00
2023-01-13T15:20:40.096Z,100.00
2023-01-13T15:23:06.521Z,100.00
2023-01-13T15:25:34.275Z,100.00
2023-01-13T15:28:00.943Z,100.00
2023-01-13T15:30:28.437Z,100.00
2023-01-13T15:32:57.167Z,100.00
2023-01-13T15:35:26.406Z,100.00
2023-01-13T15:37:53.000Z,100.00
2023-01-13T15:40:21.965Z,100.00
2023-01-13T15:43:07.428Z,100.00
2023-01-13T15:45:54.914Z,100.00
2023-01-13T15:48:23.103Z,100.00
2023-01-13T15:50:50.183Z,100.00
2023-01-13T15:53:16.841Z,100.00
2023-01-13T15:55:46.362Z,100.00
2023-01-13T15:58:13.941Z,100.00
2023-01-13T16:00:41.563Z,100.00
2023-01-13T16:03:13.835Z,100.00
2023-01-13T16:05:41.181Z,100.00
2023-01-13T16:08:18.914Z,100.00
2023-01-13T16:10:46.708Z,100.00
2023-01-13T16:13:14.428Z,100.00
2023-01-13T16:15:44.022Z,100.00
2023-01-13T16:18:16.820Z,100.00
2023-01-13T16:20:43.854Z,100.00
2023-01-13T16:23:11.268Z,100.00
2023-01-13T16:25:38.368Z,100.00
2023-01-13T16:28:04.918Z,100.00
2023-01-13T16:30:36.853Z,100.00
2023-01-13T16:33:04.059Z,100.00
2023-01-13T16:35:32.217Z,100.00
2023-01-13T16:37:59.793Z,100.00
2023-01-13T16:40:33.504Z,100.00
2023-01-13T16:43:03.156Z,100.00
2023-01-13T16:45:31.117Z,100.00
2023-01-13T16:47:57.743Z,100.00
2023-01-13T16:50:33.556Z,100.00
2023-01-13T16:52:59.988Z,100.00
2023-01-13T16:55:27.750Z,100.00
2023-01-13T16:57:54.779Z,100.00
2023-01-13T17:00:21.880Z,100.00
2023-01-13T17:02:48.512Z,100.00
2023-01-13T17:05:15.738Z,100.00
2023-01-13T17:07:44.675Z,100.00
2023-01-13T17:10:16.711Z,100.00
2023-01-13T17:12:43.069Z,100.00
2023-01-13T17:15:14.802Z,100.00
2023-01-13T17:17:43.401Z,100.00
2023-01-13T17:20:14.913Z,100.00
2023-01-13T17:22:42.436Z,100.00
2023-01-13T17:25:12.941Z,100.00
2023-01-13T17:27:39.484Z,100.00
2023-01-13T17:30:06.469Z,100.00
2023-01-13T17:32:32.885Z,100.00
2023-01-13T17:35:01.681Z,100.00
2023-01-13T17:37:29.508Z,100.00
2023-01-13T17:39:55.950Z,100.00
2023-01-13T17:42:24.124Z,100.00
2023-01-13T17:44:51.343Z,100.00
2023-01-13T17:47:17.767Z,100.00
2023-01-13T17:49:44.287Z,100.00
2023-01-13T17:52:10.765Z,100.00
2023-01-13T17:54:37.345Z,100.00
2023-01-13T17:57:03.815Z,100.00
2023-01-13T17:59:30.321Z,100.00
2023-01-13T18:01:57.178Z,100.00
2023-01-13T18:04:28.731Z,100.00
2023-01-13T18:06:56.919Z,100.00
2023-01-13T18:09:23.625Z,100.00
2023-01-13T18:11:50.179Z,100.00
2023-01-13T18:14:16.753Z,100.00
2023-01-13T18:16:43.610Z,100.00
2023-01-13T18:19:29.382Z,100.00
2023-01-13T18:22:14.796Z,100.00
2023-01-13T18:25:00.126Z,100.00
2023-01-13T18:27:33.351Z,100.00
2023-01-13T18:30:01.219Z,100.00
2023-01-13T18:32:32.866Z,100.00
2023-01-13T18:35:06.481Z,100.00
2023-01-13T18:37:38.761Z,100.00
2023-01-13T18:40:06.916Z,100.00
2023-01-13T18:42:51.431Z,100.00
2023-01-13T18:45:24.490Z,100.00
2023-01-13T18:47:51.710Z,100.00
2023-01-13T18:50:18.925Z,100.00
2023-01-13T18:52:45.440Z,100.00
2023-01-13T18:55:11.952Z,100.00
2023-01-13T18:57:39.960Z,100.00
2023-01-13T19:00:09.537Z,100.00
2023-01-13T19:02:36.854Z,100.00
2023-01-13T19:05:03.978Z,100.00
2023-01-13T19:07:31.983Z,100.00
2023-01-13T19:09:59.569Z,100.00
2023-01-13T19:12:27.497Z,100.00
2023-01-13T19:14:55.225Z,100.00
2023-01-13T19:17:23.552Z,100.00
2023-01-13T19:19:52.649Z,100.00
2023-01-13T19:22:24.439Z,100.00
2023-01-13T19:24:50.875Z,100.00
2023-01-13T19:27:19.188Z,100.00
2023-01-13T19:29:51.984Z,100.00
2023-01-13T19:32:21.147Z,100.00
2023-01-13T19:34:50.702Z,100.00
2023-01-13T19:37:18.047Z,100.00
2023-01-13T19:39:44.604Z,100.00
2023-01-13T19:42:41.320Z,100.00
2023-01-13T19:45:27.859Z,100.00
2023-01-13T19:47:55.673Z,100.00
2023-01-13T19:50:22.356Z,100.00
2023-01-13T19:52:48.832Z,100.00
2023-01-13T19:55:15.298Z,100.00
2023-01-13T19:57:41.800Z,100.00
2023-01-13T20:00:10.675Z,100.00
2023-01-13T20:02:37.388Z,100.00
2023-01-13T20:05:06.470Z,100.00
2023-01-13T20:07:33.769Z,100.00
2023-01-13T20:10:01.609Z,100.00
2023-01-13T20:12:29.143Z,100.00
2023-01-13T20:14:56.251Z,100.00
2023-01-13T20:17:22.913Z,100.00
2023-01-13T20:19:49.394Z,100.00
2023-01-13T20:22:15.878Z,100.00
2023-01-13T20:24:42.452Z,100.00
2023-01-13T20:27:09.410Z,100.00
2023-01-13T20:29:35.859Z,100.00
2023-01-13T20:32:02.769Z,100.00
2023-01-13T20:34:29.771Z,100.00
2023-01-13T20:36:56.463Z,100.00
2023-01-13T20:39:26.307Z,100.00
2023-01-13T20:42:11.812Z,100.00
2023-01-13T20:44:39.352Z,100.00
2023-01-13T20:47:06.404Z,100.00
2023-01-13T20:49:34.364Z,100.00
2023-01-13T20:52:01.065Z,100.00
2023-01-13T20:54:27.574Z,100.00
2023-01-13T20:56:54.154Z,100.00
2023-01-13T20:59:20.907Z,100.00
2023-01-13T21:01:47.474Z,100.00
2023-01-13T21:04:14.017Z,100.00
2023-01-13T21:06:41.603Z,100.00
2023-01-13T21:09:08.899Z,100.00
2023-01-13T21:11:54.623Z,100.00
2023-01-13T21:14:42.576Z,100.00
2023-01-13T21:17:30.082Z,100.00
2023-01-13T21:19:56.903Z,100.00
2023-01-13T21:22:23.469Z,100.00
2023-01-13T21:24:49.960Z,100.00
2023-01-13T21:27:16.527Z,100.00
2023-01-13T21:29:44.566Z,100.00
2023-01-13T21:32:11.377Z,100.00
2023-01-13T21:34:38.148Z,100.00
2023-01-13T21:37:04.564Z,100.00
2023-01-13T21:39:31.002Z,100.00
2023-01-13T21:42:15.942Z,100.00
2023-01-13T21:45:01.305Z,100.00
2023-01-13T21:47:46.116Z,100.00
2023-01-13T21:50:14.874Z,100.00
2023-01-13T21:52:44.608Z,100.00
2023-01-13T21:55:25.399Z,100.00
2023-01-13T21:57:54.727Z,100.00
2023-01-13T22:00:23.028Z,100.00
2023-01-13T22:02:49.863Z,100.00
2023-01-13T22:05:18.335Z,100.00
2023-01-13T22:07:44.847Z,100.00
2023-01-13T22:10:17.461Z,100.00
2023-01-13T22:12:43.924Z,100.00
2023-01-13T22:15:13.012Z,100.00
2023-01-13T22:17:41.035Z,100.00
2023-01-13T22:20:10.485Z,100.00
2023-01-13T22:22:37.116Z,100.00
2023-01-13T22:25:06.982Z,100.00
2023-01-13T22:27:39.368Z,100.00
2023-01-13T22:32:48.296Z,100.00
2023-01-13T22:35:15.820Z,100.00
2023-01-13T22:37:42.984Z,100.00
2023-01-13T22:40:11.680Z,100.00
2023-01-13T22:42:39.895Z,100.00
2023-01-13T22:45:09.881Z,100.00
2023-01-13T22:47:36.416Z,100.00
2023-01-13T22:50:03.419Z,100.00
2023-01-13T22:52:30.349Z,100.00
2023-01-13T22:54:56.934Z,100.00
2023-01-13T22:57:23.960Z,100.00
2023-01-13T22:59:50.566Z,100.00
2023-01-13T23:02:17.077Z,100.00
2023-01-13T23:04:43.806Z,100.00
2023-01-13T23:07:10.361Z,100.00
2023-01-13T23:09:36.838Z,100.00
2023-01-13T23:12:03.663Z,100.00
2023-01-13T23:14:30.353Z,100.00
2023-01-13T23:16:56.865Z,100.00
2023-01-13T23:19:23.406Z,100.00
2023-01-13T23:21:49.833Z,100.00
2023-01-13T23:24:16.285Z,100.00
2023-01-13T23:26:42.769Z,100.00
2023-01-13T23:29:12.103Z,100.00
2023-01-13T23:31:39.035Z,100.00
2023-01-13T23:34:05.520Z,100.00
2023-01-13T23:36:32.111Z,100.00
2023-01-13T23:38:59.665Z,100.00
2023-01-13T23:41:27.666Z,100.00
2023-01-13T23:43:59.755Z,100.00
2023-01-13T23:46:27.082Z,100.00
2023-01-13T23:48:55.141Z,100.00
2023-01-13T23:51:22.013Z,100.00
2023-01-13T23:53:50.045Z,100.00
2023-01-13T23:56:19.852Z,100.00
2023-01-13T23:58:46.714Z,100.00
